Terminal Aerodrome Forecast
Issued by NWS

Home | Current Version | Previous Version | Text Only | Print | Product List | Glossary On
Versions: 1 2 3 4 5 6 7 8 9 10 11 12 13 14 15 16 17
000
FTUS45 KFGZ 031706 CCA
TAFPRC
TAF COR
KPRC 031706Z 0312/0412 14010KT P6SM SCT080
     FM031930 19008G15KT P6SM BKN080
     FM040200 20005KT P6SM SCT080=

USA.gov is the U.S. government's official web portal to all federal, state and local government web resources and services.